Terminal Aerodrome Forecast
Issued by NWS Houston/Galveston, TX

Home | Current Version | Previous Version | Text Only | Print | Product List | Glossary On
Versions: 1 2 3 4 5 6 7 8 9 10 11 12 13 14 15 16 17 18 19 20 21 22
000
FTUS44 KHGX 271517 CCA
TAFCLL
TAF COR
KCLL 271517Z 2715/2812 18009KT 6SM HZ FEW021 OVC035
     FM271700 18014G21KT P6SM BKN035
     FM280400 18011KT P6SM BKN015 OVC030
     FM280600 18006KT P6SM OVC014
     FM280900 19007KT P6SM VCSH OVC010=

USA.gov is the U.S. government's official web portal to all federal, state and local government web resources and services.